sensor_id;sensor_type;location;lat;lon;timestamp;temperature;humidity
19970;DHT22;10146;47.754;9.566;2022-11-21T00:00:50;5.30;99.90
19970;DHT22;10146;47.754;9.566;2022-11-21T00:03:16;5.30;99.90
19970;DHT22;10146;47.754;9.566;2022-11-21T00:05:44;5.40;99.90
19970;DHT22;10146;47.754;9.566;2022-11-21T00:08:11;5.30;99.90
19970;DHT22;10146;47.754;9.566;2022-11-21T00:10:38;5.30;99.90
19970;DHT22;10146;47.754;9.566;2022-11-21T00:13:04;5.40;99.90
19970;DHT22;10146;47.754;9.566;2022-11-21T00:15:31;5.40;99.90
19970;DHT22;10146;47.754;9.566;2022-11-21T00:17:57;5.40;99.90
19970;DHT22;10146;47.754;9.566;2022-11-21T00:20:22;5.40;99.90
19970;DHT22;10146;47.754;9.566;2022-11-21T00:22:49;5.40;99.90
19970;DHT22;10146;47.754;9.566;2022-11-21T00:25:14;5.40;99.90
19970;DHT22;10146;47.754;9.566;2022-11-21T00:27:40;5.40;99.90
19970;DHT22;10146;47.754;9.566;2022-11-21T00:30:07;5.50;99.90
19970;DHT22;10146;47.754;9.566;2022-11-21T00:32:33;5.50;99.90
19970;DHT22;10146;47.754;9.566;2022-11-21T00:34:59;5.50;99.90
19970;DHT22;10146;47.754;9.566;2022-11-21T00:37:24;5.50;99.90
19970;DHT22;10146;47.754;9.566;2022-11-21T00:39:50;5.50;99.90
19970;DHT22;10146;47.754;9.566;2022-11-21T00:42:15;5.50;99.90
19970;DHT22;10146;47.754;9.566;2022-11-21T00:44:41;5.50;99.90
19970;DHT22;10146;47.754;9.566;2022-11-21T00:47:07;5.50;99.90
19970;DHT22;10146;47.754;9.566;2022-11-21T00:49:32;5.50;99.90
19970;DHT22;10146;47.754;9.566;2022-11-21T00:51:58;5.50;99.90
19970;DHT22;10146;47.754;9.566;2022-11-21T00:54:23;5.60;99.90
19970;DHT22;10146;47.754;9.566;2022-11-21T00:56:49;5.60;99.90
19970;DHT22;10146;47.754;9.566;2022-11-21T00:59:14;5.60;99.90
19970;DHT22;10146;47.754;9.566;2022-11-21T01:01:40;5.60;99.90
19970;DHT22;10146;47.754;9.566;2022-11-21T01:04:05;5.60;99.90
19970;DHT22;10146;47.754;9.566;2022-11-21T01:06:31;5.60;99.90
19970;DHT22;10146;47.754;9.566;2022-11-21T01:08:57;5.70;99.90
19970;DHT22;10146;47.754;9.566;2022-11-21T01:11:23;5.70;99.90
19970;DHT22;10146;47.754;9.566;2022-11-21T01:13:51;5.70;99.90
19970;DHT22;10146;47.754;9.566;2022-11-21T01:16:19;5.70;99.90
19970;DHT22;10146;47.754;9.566;2022-11-21T01:18:46;5.70;99.90
19970;DHT22;10146;47.754;9.566;2022-11-21T01:23:38;5.70;99.90
19970;DHT22;10146;47.754;9.566;2022-11-21T01:26:06;5.70;99.90
19970;DHT22;10146;47.754;9.566;2022-11-21T01:28:32;5.80;99.90
19970;DHT22;10146;47.754;9.566;2022-11-21T01:31:09;5.80;99.90
19970;DHT22;10146;47.754;9.566;2022-11-21T01:33:36;5.80;99.90
19970;DHT22;10146;47.754;9.566;2022-11-21T01:36:32;5.70;99.90
19970;DHT22;10146;47.754;9.566;2022-11-21T01:39:01;5.70;99.90
19970;DHT22;10146;47.754;9.566;2022-11-21T01:41:35;5.70;99.90
19970;DHT22;10146;47.754;9.566;2022-11-21T01:44:05;5.60;99.90
19970;DHT22;10146;47.754;9.566;2022-11-21T01:46:31;5.70;99.90
19970;DHT22;10146;47.754;9.566;2022-11-21T01:51:57;5.70;99.90
19970;DHT22;10146;47.754;9.566;2022-11-21T01:57:14;5.70;99.90
19970;DHT22;10146;47.754;9.566;2022-11-21T02:02:11;5.80;99.90
19970;DHT22;10146;47.754;9.566;2022-11-21T02:04:39;5.80;99.90
19970;DHT22;10146;47.754;9.566;2022-11-21T02:07:07;5.80;99.90
19970;DHT22;10146;47.754;9.566;2022-11-21T02:09:35;5.70;99.90
19970;DHT22;10146;47.754;9.566;2022-11-21T02:12:08;5.70;99.90
19970;DHT22;10146;47.754;9.566;2022-11-21T02:14:36;5.80;99.90
19970;DHT22;10146;47.754;9.566;2022-11-21T02:17:04;5.70;99.90
19970;DHT22;10146;47.754;9.566;2022-11-21T02:19:54;5.80;99.90
19970;DHT22;10146;47.754;9.566;2022-11-21T02:22:26;5.80;99.90
19970;DHT22;10146;47.754;9.566;2022-11-21T02:27:55;5.90;99.90
19970;DHT22;10146;47.754;9.566;2022-11-21T02:30:22;5.90;99.90
19970;DHT22;10146;47.754;9.566;2022-11-21T02:32:48;5.90;99.90
19970;DHT22;10146;47.754;9.566;2022-11-21T02:35:16;5.80;99.90
19970;DHT22;10146;47.754;9.566;2022-11-21T02:37:43;5.90;99.90
19970;DHT22;10146;47.754;9.566;2022-11-21T02:40:22;5.90;99.90
19970;DHT22;10146;47.754;9.566;2022-11-21T02:43:51;5.90;99.90
19970;DHT22;10146;47.754;9.566;2022-11-21T02:45:45;6.00;99.90
19970;DHT22;10146;47.754;9.566;2022-11-21T02:48:11;6.00;99.90
19970;DHT22;10146;47.754;9.566;2022-11-21T02:50:41;6.00;99.90
19970;DHT22;10146;47.754;9.566;2022-11-21T02:53:09;5.90;99.90
19970;DHT22;10146;47.754;9.566;2022-11-21T02:55:35;5.90;99.90
19970;DHT22;10146;47.754;9.566;2022-11-21T02:58:01;5.90;99.90
19970;DHT22;10146;47.754;9.566;2022-11-21T03:00:27;6.00;99.90
19970;DHT22;10146;47.754;9.566;2022-11-21T03:02:52;5.90;99.90
19970;DHT22;10146;47.754;9.566;2022-11-21T03:05:19;5.90;99.90
19970;DHT22;10146;47.754;9.566;2022-11-21T03:07:45;5.80;99.90
19970;DHT22;10146;47.754;9.566;2022-11-21T03:10:12;5.80;99.90
19970;DHT22;10146;47.754;9.566;2022-11-21T03:12:39;5.80;99.90
19970;DHT22;10146;47.754;9.566;2022-11-21T03:15:07;5.80;99.90
19970;DHT22;10146;47.754;9.566;2022-11-21T03:17:33;5.80;99.90
19970;DHT22;10146;47.754;9.566;2022-11-21T03:19:59;5.70;99.90
19970;DHT22;10146;47.754;9.566;2022-11-21T03:22:24;5.80;99.90
19970;DHT22;10146;47.754;9.566;2022-11-21T03:24:50;5.80;99.90
19970;DHT22;10146;47.754;9.566;2022-11-21T03:27:16;5.80;99.90
19970;DHT22;10146;47.754;9.566;2022-11-21T03:29:42;5.70;99.90
19970;DHT22;10146;47.754;9.566;2022-11-21T03:32:08;5.70;99.90
19970;DHT22;10146;47.754;9.566;2022-11-21T03:34:33;5.70;99.90
19970;DHT22;10146;47.754;9.566;2022-11-21T03:36:59;5.70;99.90
19970;DHT22;10146;47.754;9.566;2022-11-21T03:39:24;5.70;99.90
19970;DHT22;10146;47.754;9.566;2022-11-21T03:41:50;5.60;99.90
19970;DHT22;10146;47.754;9.566;2022-11-21T03:44:16;5.60;99.90
19970;DHT22;10146;47.754;9.566;2022-11-21T03:46:44;5.60;99.90
19970;DHT22;10146;47.754;9.566;2022-11-21T03:49:10;5.60;99.90
19970;DHT22;10146;47.754;9.566;2022-11-21T03:51:36;5.60;99.90
19970;DHT22;10146;47.754;9.566;2022-11-21T03:54:02;5.60;99.90
19970;DHT22;10146;47.754;9.566;2022-11-21T03:56:28;5.60;99.90
19970;DHT22;10146;47.754;9.566;2022-11-21T03:58:54;5.60;99.90
19970;DHT22;10146;47.754;9.566;2022-11-21T04:01:20;5.60;99.90
19970;DHT22;10146;47.754;9.566;2022-11-21T04:03:46;5.70;99.90
19970;DHT22;10146;47.754;9.566;2022-11-21T04:06:14;5.60;99.90
19970;DHT22;10146;47.754;9.566;2022-11-21T04:08:40;5.70;99.90
19970;DHT22;10146;47.754;9.566;2022-11-21T04:11:06;5.60;99.90
19970;DHT22;10146;47.754;9.566;2022-11-21T04:13:32;5.60;99.90
19970;DHT22;10146;47.754;9.566;2022-11-21T04:15:57;5.60;99.90
19970;DHT22;10146;47.754;9.566;2022-11-21T04:18:23;5.60;99.90
19970;DHT22;10146;47.754;9.566;2022-11-21T04:20:54;5.60;99.90
19970;DHT22;10146;47.754;9.566;2022-11-21T04:23:19;5.60;99.90
19970;DHT22;10146;47.754;9.566;2022-11-21T04:25:45;5.60;99.90
19970;DHT22;10146;47.754;9.566;2022-11-21T04:28:11;5.50;99.90
19970;DHT22;10146;47.754;9.566;2022-11-21T04:30:38;5.50;99.90
19970;DHT22;10146;47.754;9.566;2022-11-21T04:33:03;5.60;99.90
19970;DHT22;10146;47.754;9.566;2022-11-21T04:35:29;5.60;99.90
19970;DHT22;10146;47.754;9.566;2022-11-21T04:37:54;5.60;99.90
19970;DHT22;10146;47.754;9.566;2022-11-21T04:40:20;5.60;99.90
19970;DHT22;10146;47.754;9.566;2022-11-21T04:42:46;5.60;99.90
19970;DHT22;10146;47.754;9.566;2022-11-21T04:45:13;5.60;99.90
19970;DHT22;10146;47.754;9.566;2022-11-21T04:47:41;5.60;99.90
19970;DHT22;10146;47.754;9.566;2022-11-21T04:50:08;5.60;99.90
19970;DHT22;10146;47.754;9.566;2022-11-21T04:52:34;5.60;99.90
19970;DHT22;10146;47.754;9.566;2022-11-21T04:55:01;5.60;99.90
19970;DHT22;10146;47.754;9.566;2022-11-21T04:57:27;5.60;99.90
19970;DHT22;10146;47.754;9.566;2022-11-21T04:59:54;5.60;99.90
19970;DHT22;10146;47.754;9.566;2022-11-21T05:02:20;5.60;99.90
19970;DHT22;10146;47.754;9.566;2022-11-21T05:04:45;5.60;99.90
19970;DHT22;10146;47.754;9.566;2022-11-21T05:07:11;5.70;99.90
19970;DHT22;10146;47.754;9.566;2022-11-21T05:09:36;5.70;99.90
19970;DHT22;10146;47.754;9.566;2022-11-21T05:12:02;5.60;99.90
19970;DHT22;10146;47.754;9.566;2022-11-21T05:14:46;5.60;99.90
19970;DHT22;10146;47.754;9.566;2022-11-21T05:17:12;5.70;99.90
19970;DHT22;10146;47.754;9.566;2022-11-21T05:19:38;5.60;99.90
19970;DHT22;10146;47.754;9.566;2022-11-21T05:22:03;5.70;99.90
19970;DHT22;10146;47.754;9.566;2022-11-21T05:24:29;5.70;99.90
19970;DHT22;10146;47.754;9.566;2022-11-21T05:26:54;5.70;99.90
19970;DHT22;10146;47.754;9.566;2022-11-21T05:29:20;5.70;99.90
19970;DHT22;10146;47.754;9.566;2022-11-21T05:31:46;5.70;99.90
19970;DHT22;10146;47.754;9.566;2022-11-21T05:34:11;5.70;99.90
19970;DHT22;10146;47.754;9.566;2022-11-21T05:36:37;5.70;99.90
19970;DHT22;10146;47.754;9.566;2022-11-21T05:39:03;5.70;99.90
19970;DHT22;10146;47.754;9.566;2022-11-21T05:41:28;5.70;99.90
19970;DHT22;10146;47.754;9.566;2022-11-21T05:43:54;5.70;99.90
19970;DHT22;10146;47.754;9.566;2022-11-21T05:46:23;5.70;99.90
19970;DHT22;10146;47.754;9.566;2022-11-21T05:48:50;5.70;99.90
19970;DHT22;10146;47.754;9.566;2022-11-21T05:51:16;5.70;99.90
19970;DHT22;10146;47.754;9.566;2022-11-21T05:53:42;5.70;99.90
19970;DHT22;10146;47.754;9.566;2022-11-21T05:56:11;5.70;99.90
19970;DHT22;10146;47.754;9.566;2022-11-21T05:58:37;5.70;99.90
19970;DHT22;10146;47.754;9.566;2022-11-21T06:01:04;5.70;99.90
19970;DHT22;10146;47.754;9.566;2022-11-21T06:03:33;5.70;99.90
19970;DHT22;10146;47.754;9.566;2022-11-21T06:06:03;5.70;99.90
19970;DHT22;10146;47.754;9.566;2022-11-21T06:08:31;5.70;99.90
19970;DHT22;10146;47.754;9.566;2022-11-21T06:10:57;5.70;99.90
19970;DHT22;10146;47.754;9.566;2022-11-21T06:13:23;5.70;99.90
19970;DHT22;10146;47.754;9.566;2022-11-21T06:15:50;5.70;99.90
19970;DHT22;10146;47.754;9.566;2022-11-21T06:18:16;5.70;99.90
19970;DHT22;10146;47.754;9.566;2022-11-21T06:20:41;5.70;99.90
19970;DHT22;10146;47.754;9.566;2022-11-21T06:23:07;5.60;99.90
19970;DHT22;10146;47.754;9.566;2022-11-21T06:25:33;5.50;99.90
19970;DHT22;10146;47.754;9.566;2022-11-21T06:27:59;5.40;99.90
19970;DHT22;10146;47.754;9.566;2022-11-21T06:30:24;5.30;99.90
19970;DHT22;10146;47.754;9.566;2022-11-21T06:32:50;5.30;99.90
19970;DHT22;10146;47.754;9.566;2022-11-21T06:35:15;5.20;99.90
19970;DHT22;10146;47.754;9.566;2022-11-21T06:37:41;5.20;99.90
19970;DHT22;10146;47.754;9.566;2022-11-21T06:40:07;5.20;99.90
19970;DHT22;10146;47.754;9.566;2022-11-21T06:42:33;5.20;99.90
19970;DHT22;10146;47.754;9.566;2022-11-21T06:44:58;5.10;99.90
19970;DHT22;10146;47.754;9.566;2022-11-21T06:47:24;5.20;99.90
19970;DHT22;10146;47.754;9.566;2022-11-21T06:49:50;5.20;99.90
19970;DHT22;10146;47.754;9.566;2022-11-21T06:52:15;5.20;99.90
19970;DHT22;10146;47.754;9.566;2022-11-21T06:54:41;5.20;99.90
19970;DHT22;10146;47.754;9.566;2022-11-21T06:57:06;5.20;99.90
19970;DHT22;10146;47.754;9.566;2022-11-21T06:59:32;5.20;99.90
19970;DHT22;10146;47.754;9.566;2022-11-21T07:01:58;5.20;99.90
19970;DHT22;10146;47.754;9.566;2022-11-21T07:04:24;5.20;99.90
19970;DHT22;10146;47.754;9.566;2022-11-21T07:06:49;5.30;99.90
19970;DHT22;10146;47.754;9.566;2022-11-21T07:09:15;5.30;99.90
19970;DHT22;10146;47.754;9.566;2022-11-21T07:11:41;5.30;99.90
19970;DHT22;10146;47.754;9.566;2022-11-21T07:14:06;5.30;99.90
19970;DHT22;10146;47.754;9.566;2022-11-21T07:16:32;5.20;99.90
19970;DHT22;10146;47.754;9.566;2022-11-21T07:18:58;5.20;99.90
19970;DHT22;10146;47.754;9.566;2022-11-21T07:21:25;5.30;99.90
19970;DHT22;10146;47.754;9.566;2022-11-21T07:23:51;5.30;99.90
19970;DHT22;10146;47.754;9.566;2022-11-21T07:26:16;5.30;99.90
19970;DHT22;10146;47.754;9.566;2022-11-21T07:28:42;5.30;99.90
19970;DHT22;10146;47.754;9.566;2022-11-21T07:31:09;5.30;99.90
19970;DHT22;10146;47.754;9.566;2022-11-21T07:33:34;5.40;99.90
19970;DHT22;10146;47.754;9.566;2022-11-21T07:36:02;5.50;99.90
19970;DHT22;10146;47.754;9.566;2022-11-21T07:38:28;5.50;99.90
19970;DHT22;10146;47.754;9.566;2022-11-21T07:40:55;5.50;99.90
19970;DHT22;10146;47.754;9.566;2022-11-21T07:43:21;5.60;99.90
19970;DHT22;10146;47.754;9.566;2022-11-21T07:45:47;5.60;99.90
19970;DHT22;10146;47.754;9.566;2022-11-21T07:48:12;5.60;99.90
19970;DHT22;10146;47.754;9.566;2022-11-21T07:50:38;5.70;99.90
19970;DHT22;10146;47.754;9.566;2022-11-21T07:53:05;5.70;99.90
19970;DHT22;10146;47.754;9.566;2022-11-21T07:55:32;5.70;99.90
19970;DHT22;10146;47.754;9.566;2022-11-21T07:57:58;5.60;99.90
19970;DHT22;10146;47.754;9.566;2022-11-21T08:00:25;5.60;99.90
19970;DHT22;10146;47.754;9.566;2022-11-21T08:02:51;5.50;99.90
19970;DHT22;10146;47.754;9.566;2022-11-21T08:05:16;5.50;99.90
19970;DHT22;10146;47.754;9.566;2022-11-21T08:07:42;5.50;99.90
19970;DHT22;10146;47.754;9.566;2022-11-21T08:10:08;5.50;99.90
19970;DHT22;10146;47.754;9.566;2022-11-21T08:12:33;5.40;99.90
19970;DHT22;10146;47.754;9.566;2022-11-21T08:14:59;5.40;99.90
19970;DHT22;10146;47.754;9.566;2022-11-21T08:17:25;5.50;99.90
19970;DHT22;10146;47.754;9.566;2022-11-21T08:19:51;5.40;99.90
19970;DHT22;10146;47.754;9.566;2022-11-21T08:22:17;5.40;99.90
19970;DHT22;10146;47.754;9.566;2022-11-21T08:24:42;5.50;99.90
19970;DHT22;10146;47.754;9.566;2022-11-21T08:27:08;5.50;99.90
19970;DHT22;10146;47.754;9.566;2022-11-21T08:29:33;5.60;99.90
19970;DHT22;10146;47.754;9.566;2022-11-21T08:31:59;5.70;99.90
19970;DHT22;10146;47.754;9.566;2022-11-21T08:34:25;5.70;99.90
19970;DHT22;10146;47.754;9.566;2022-11-21T08:36:50;5.80;99.90
19970;DHT22;10146;47.754;9.566;2022-11-21T08:39:16;5.80;99.90
19970;DHT22;10146;47.754;9.566;2022-11-21T08:41:42;5.80;99.90
19970;DHT22;10146;47.754;9.566;2022-11-21T08:44:25;5.80;99.90
19970;DHT22;10146;47.754;9.566;2022-11-21T08:46:53;5.80;99.90
19970;DHT22;10146;47.754;9.566;2022-11-21T08:49:18;5.70;99.90
19970;DHT22;10146;47.754;9.566;2022-11-21T08:51:45;5.60;99.90
19970;DHT22;10146;47.754;9.566;2022-11-21T08:54:14;5.60;99.90
19970;DHT22;10146;47.754;9.566;2022-11-21T08:56:40;5.60;99.90
19970;DHT22;10146;47.754;9.566;2022-11-21T08:59:05;5.60;99.90
19970;DHT22;10146;47.754;9.566;2022-11-21T09:01:32;5.60;99.90
19970;DHT22;10146;47.754;9.566;2022-11-21T09:03:57;5.60;99.90
19970;DHT22;10146;47.754;9.566;2022-11-21T09:06:23;5.70;99.90
19970;DHT22;10146;47.754;9.566;2022-11-21T09:08:49;5.70;99.90
19970;DHT22;10146;47.754;9.566;2022-11-21T09:11:15;5.70;99.90
19970;DHT22;10146;47.754;9.566;2022-11-21T09:13:40;5.70;99.90
19970;DHT22;10146;47.754;9.566;2022-11-21T09:16:06;5.70;99.90
19970;DHT22;10146;47.754;9.566;2022-11-21T09:18:53;5.80;99.90
19970;DHT22;10146;47.754;9.566;2022-11-21T09:21:19;5.80;99.90
19970;DHT22;10146;47.754;9.566;2022-11-21T09:23:45;5.80;99.90
19970;DHT22;10146;47.754;9.566;2022-11-21T09:26:11;5.90;99.90
19970;DHT22;10146;47.754;9.566;2022-11-21T09:28:37;5.80;99.90
19970;DHT22;10146;47.754;9.566;2022-11-21T09:31:03;5.90;99.90
19970;DHT22;10146;47.754;9.566;2022-11-21T09:33:29;6.00;99.90
19970;DHT22;10146;47.754;9.566;2022-11-21T09:35:57;6.10;99.90
19970;DHT22;10146;47.754;9.566;2022-11-21T09:38:24;6.20;99.90
19970;DHT22;10146;47.754;9.566;2022-11-21T09:40:51;6.20;99.90
19970;DHT22;10146;47.754;9.566;2022-11-21T09:46:13;6.40;99.90
19970;DHT22;10146;47.754;9.566;2022-11-21T09:48:51;6.50;99.90
19970;DHT22;10146;47.754;9.566;2022-11-21T09:51:19;6.50;99.90
19970;DHT22;10146;47.754;9.566;2022-11-21T09:54:00;6.60;99.90
19970;DHT22;10146;47.754;9.566;2022-11-21T09:56:30;6.60;99.90
19970;DHT22;10146;47.754;9.566;2022-11-21T10:01:42;6.70;99.90
19970;DHT22;10146;47.754;9.566;2022-11-21T10:04:07;6.70;99.90
19970;DHT22;10146;47.754;9.566;2022-11-21T10:06:51;6.80;99.90
19970;DHT22;10146;47.754;9.566;2022-11-21T10:11:56;6.90;99.90
19970;DHT22;10146;47.754;9.566;2022-11-21T10:25:37;7.10;99.90
19970;DHT22;10146;47.754;9.566;2022-11-21T10:28:17;7.00;99.90
19970;DHT22;10146;47.754;9.566;2022-11-21T10:30:45;7.10;99.90
19970;DHT22;10146;47.754;9.566;2022-11-21T10:33:17;7.30;99.90
19970;DHT22;10146;47.754;9.566;2022-11-21T10:35:56;7.30;99.90
19970;DHT22;10146;47.754;9.566;2022-11-21T10:38:25;7.20;99.90
19970;DHT22;10146;47.754;9.566;2022-11-21T10:43:48;7.10;99.90
19970;DHT22;10146;47.754;9.566;2022-11-21T10:46:34;7.10;99.90
19970;DHT22;10146;47.754;9.566;2022-11-21T10:49:01;7.20;99.90
19970;DHT22;10146;47.754;9.566;2022-11-21T10:54:23;7.20;99.90
19970;DHT22;10146;47.754;9.566;2022-11-21T10:57:15;7.20;99.90
19970;DHT22;10146;47.754;9.566;2022-11-21T11:00:04;7.40;99.90
19970;DHT22;10146;47.754;9.566;2022-11-21T11:02:42;7.40;99.90
19970;DHT22;10146;47.754;9.566;2022-11-21T11:05:24;7.50;99.90
19970;DHT22;10146;47.754;9.566;2022-11-21T11:08:00;7.70;99.90
19970;DHT22;10146;47.754;9.566;2022-11-21T11:10:27;7.80;99.90
19970;DHT22;10146;47.754;9.566;2022-11-21T11:12:53;7.80;99.90
19970;DHT22;10146;47.754;9.566;2022-11-21T11:15:52;7.80;99.90
19970;DHT22;10146;47.754;9.566;2022-11-21T11:18:21;7.80;99.90
19970;DHT22;10146;47.754;9.566;2022-11-21T11:20:47;7.70;99.90
19970;DHT22;10146;47.754;9.566;2022-11-21T11:25:56;7.70;99.90
19970;DHT22;10146;47.754;9.566;2022-11-21T11:28:26;7.80;99.90
19970;DHT22;10146;47.754;9.566;2022-11-21T11:30:57;7.90;99.90
19970;DHT22;10146;47.754;9.566;2022-11-21T11:36:09;8.10;99.90
19970;DHT22;10146;47.754;9.566;2022-11-21T11:38:35;8.30;99.90
19970;DHT22;10146;47.754;9.566;2022-11-21T11:41:12;8.20;99.90
19970;DHT22;10146;47.754;9.566;2022-11-21T11:49:49;8.30;99.90
19970;DHT22;10146;47.754;9.566;2022-11-21T11:52:54;8.20;99.90
19970;DHT22;10146;47.754;9.566;2022-11-21T11:58:28;8.20;99.90
19970;DHT22;10146;47.754;9.566;2022-11-21T12:01:12;8.30;99.90
19970;DHT22;10146;47.754;9.566;2022-11-21T12:09:31;8.50;99.90
19970;DHT22;10146;47.754;9.566;2022-11-21T12:12:27;8.40;99.90
19970;DHT22;10146;47.754;9.566;2022-11-21T12:23:30;8.20;99.90
19970;DHT22;10146;47.754;9.566;2022-11-21T12:34:26;8.10;99.90
19970;DHT22;10146;47.754;9.566;2022-11-21T12:37:16;8.10;99.90
19970;DHT22;10146;47.754;9.566;2022-11-21T12:40:10;8.20;99.90
19970;DHT22;10146;47.754;9.566;2022-11-21T12:45:36;8.20;99.90
19970;DHT22;10146;47.754;9.566;2022-11-21T12:51:39;8.20;99.90
19970;DHT22;10146;47.754;9.566;2022-11-21T12:54:56;8.20;99.90
19970;DHT22;10146;47.754;9.566;2022-11-21T12:57:59;8.30;99.90
19970;DHT22;10146;47.754;9.566;2022-11-21T13:03:53;8.50;99.90
19970;DHT22;10146;47.754;9.566;2022-11-21T13:06:26;8.70;99.90
19970;DHT22;10146;47.754;9.566;2022-11-21T13:08:54;8.70;99.90
19970;DHT22;10146;47.754;9.566;2022-11-21T13:20:01;8.80;99.90
19970;DHT22;10146;47.754;9.566;2022-11-21T13:25:40;8.80;99.90
19970;DHT22;10146;47.754;9.566;2022-11-21T13:36:09;8.60;99.90
19970;DHT22;10146;47.754;9.566;2022-11-21T13:47:00;8.50;99.90
19970;DHT22;10146;47.754;9.566;2022-11-21T13:49:52;8.50;99.90
19970;DHT22;10146;47.754;9.566;2022-11-21T13:57:52;8.40;99.90
19970;DHT22;10146;47.754;9.566;2022-11-21T14:06:21;8.30;99.90
19970;DHT22;10146;47.754;9.566;2022-11-21T14:14:37;8.40;99.90
19970;DHT22;10146;47.754;9.566;2022-11-21T14:17:19;8.50;99.90
19970;DHT22;10146;47.754;9.566;2022-11-21T14:19:47;8.50;99.90
19970;DHT22;10146;47.754;9.566;2022-11-21T14:22:30;8.40;99.90
19970;DHT22;10146;47.754;9.566;2022-11-21T14:25:00;8.30;99.90
19970;DHT22;10146;47.754;9.566;2022-11-21T14:27:31;8.10;99.90
19970;DHT22;10146;47.754;9.566;2022-11-21T14:29:57;8.00;99.90
19970;DHT22;10146;47.754;9.566;2022-11-21T14:32:27;7.80;99.90
19970;DHT22;10146;47.754;9.566;2022-11-21T14:35:14;7.70;99.90
19970;DHT22;10146;47.754;9.566;2022-11-21T14:37:42;7.50;99.90
19970;DHT22;10146;47.754;9.566;2022-11-21T14:40:21;7.40;99.90
19970;DHT22;10146;47.754;9.566;2022-11-21T14:42:47;7.20;99.90
19970;DHT22;10146;47.754;9.566;2022-11-21T14:45:18;7.10;99.90
19970;DHT22;10146;47.754;9.566;2022-11-21T14:47:48;7.00;99.90
19970;DHT22;10146;47.754;9.566;2022-11-21T14:50:29;6.90;99.90
19970;DHT22;10146;47.754;9.566;2022-11-21T14:52:55;6.90;99.90
19970;DHT22;10146;47.754;9.566;2022-11-21T14:55:28;6.70;99.90
19970;DHT22;10146;47.754;9.566;2022-11-21T14:57:56;6.70;99.90
19970;DHT22;10146;47.754;9.566;2022-11-21T15:00:25;6.70;99.90
19970;DHT22;10146;47.754;9.566;2022-11-21T15:02:55;6.60;99.90
19970;DHT22;10146;47.754;9.566;2022-11-21T15:05:31;6.60;99.90
19970;DHT22;10146;47.754;9.566;2022-11-21T15:07:58;6.50;99.90
19970;DHT22;10146;47.754;9.566;2022-11-21T15:10:29;6.40;99.90
19970;DHT22;10146;47.754;9.566;2022-11-21T15:12:57;6.40;99.90
19970;DHT22;10146;47.754;9.566;2022-11-21T15:15:27;6.30;99.90
19970;DHT22;10146;47.754;9.566;2022-11-21T15:18:10;6.30;99.90
19970;DHT22;10146;47.754;9.566;2022-11-21T15:20:37;6.30;99.90
19970;DHT22;10146;47.754;9.566;2022-11-21T15:23:02;6.20;99.90
19970;DHT22;10146;47.754;9.566;2022-11-21T15:25:43;6.10;99.90
19970;DHT22;10146;47.754;9.566;2022-11-21T15:28:14;6.00;99.90
19970;DHT22;10146;47.754;9.566;2022-11-21T15:30:41;5.90;99.90
19970;DHT22;10146;47.754;9.566;2022-11-21T15:33:08;5.90;99.90
19970;DHT22;10146;47.754;9.566;2022-11-21T15:38:00;5.80;99.90
19970;DHT22;10146;47.754;9.566;2022-11-21T15:40:26;5.80;99.90
19970;DHT22;10146;47.754;9.566;2022-11-21T15:42:51;5.70;99.90
19970;DHT22;10146;47.754;9.566;2022-11-21T15:45:26;5.70;99.90
19970;DHT22;10146;47.754;9.566;2022-11-21T15:47:52;5.60;99.90
19970;DHT22;10146;47.754;9.566;2022-11-21T15:50:18;5.60;99.90
19970;DHT22;10146;47.754;9.566;2022-11-21T15:52:47;5.60;99.90
19970;DHT22;10146;47.754;9.566;2022-11-21T15:55:40;5.50;99.90
19970;DHT22;10146;47.754;9.566;2022-11-21T15:58:05;5.50;99.90
19970;DHT22;10146;47.754;9.566;2022-11-21T16:00:31;5.50;99.90
19970;DHT22;10146;47.754;9.566;2022-11-21T16:02:56;5.40;99.90
19970;DHT22;10146;47.754;9.566;2022-11-21T16:05:22;5.40;99.90
19970;DHT22;10146;47.754;9.566;2022-11-21T16:07:48;5.50;99.90
19970;DHT22;10146;47.754;9.566;2022-11-21T16:10:13;5.50;99.90
19970;DHT22;10146;47.754;9.566;2022-11-21T16:12:39;5.40;99.90
19970;DHT22;10146;47.754;9.566;2022-11-21T16:15:05;5.30;99.90
19970;DHT22;10146;47.754;9.566;2022-11-21T16:17:30;5.30;99.90
19970;DHT22;10146;47.754;9.566;2022-11-21T16:19:56;5.40;99.90
19970;DHT22;10146;47.754;9.566;2022-11-21T16:22:21;5.40;99.90
19970;DHT22;10146;47.754;9.566;2022-11-21T16:24:47;5.30;99.90
19970;DHT22;10146;47.754;9.566;2022-11-21T16:27:12;5.20;99.90
19970;DHT22;10146;47.754;9.566;2022-11-21T16:29:38;5.20;99.90
19970;DHT22;10146;47.754;9.566;2022-11-21T16:32:04;5.30;99.90
19970;DHT22;10146;47.754;9.566;2022-11-21T16:34:29;5.30;99.90
19970;DHT22;10146;47.754;9.566;2022-11-21T16:36:57;5.30;99.90
19970;DHT22;10146;47.754;9.566;2022-11-21T16:39:22;5.30;99.90
19970;DHT22;10146;47.754;9.566;2022-11-21T16:41:48;5.30;99.90
19970;DHT22;10146;47.754;9.566;2022-11-21T16:44:15;5.20;99.90
19970;DHT22;10146;47.754;9.566;2022-11-21T16:46:42;5.20;99.90
19970;DHT22;10146;47.754;9.566;2022-11-21T16:49:08;5.20;99.90
19970;DHT22;10146;47.754;9.566;2022-11-21T16:51:34;5.10;99.90
19970;DHT22;10146;47.754;9.566;2022-11-21T16:53:59;5.00;99.90
19970;DHT22;10146;47.754;9.566;2022-11-21T16:56:25;5.10;99.90
19970;DHT22;10146;47.754;9.566;2022-11-21T16:58:51;5.10;99.90
19970;DHT22;10146;47.754;9.566;2022-11-21T17:01:22;5.10;99.90
19970;DHT22;10146;47.754;9.566;2022-11-21T17:03:49;5.10;99.90
19970;DHT22;10146;47.754;9.566;2022-11-21T17:06:17;5.00;99.90
19970;DHT22;10146;47.754;9.566;2022-11-21T17:08:43;5.20;99.90
19970;DHT22;10146;47.754;9.566;2022-11-21T17:11:13;5.10;99.90
19970;DHT22;10146;47.754;9.566;2022-11-21T17:13:39;5.20;99.90
19970;DHT22;10146;47.754;9.566;2022-11-21T17:16:06;5.10;99.90
19970;DHT22;10146;47.754;9.566;2022-11-21T17:18:32;5.20;99.90
19970;DHT22;10146;47.754;9.566;2022-11-21T17:20:57;5.30;99.90
19970;DHT22;10146;47.754;9.566;2022-11-21T17:23:23;5.30;99.90
19970;DHT22;10146;47.754;9.566;2022-11-21T17:25:48;5.40;99.90
19970;DHT22;10146;47.754;9.566;2022-11-21T17:28:14;5.40;99.90
19970;DHT22;10146;47.754;9.566;2022-11-21T17:30:40;5.40;99.90
19970;DHT22;10146;47.754;9.566;2022-11-21T17:33:09;5.50;99.90
19970;DHT22;10146;47.754;9.566;2022-11-21T17:35:34;5.50;99.90
19970;DHT22;10146;47.754;9.566;2022-11-21T17:38:00;5.40;99.90
19970;DHT22;10146;47.754;9.566;2022-11-21T17:40:26;5.40;99.90
19970;DHT22;10146;47.754;9.566;2022-11-21T17:42:52;5.40;99.90
19970;DHT22;10146;47.754;9.566;2022-11-21T17:45:17;5.40;99.90
19970;DHT22;10146;47.754;9.566;2022-11-21T17:47:43;5.40;99.90
19970;DHT22;10146;47.754;9.566;2022-11-21T17:50:11;5.30;99.90
19970;DHT22;10146;47.754;9.566;2022-11-21T17:52:36;5.30;99.90
19970;DHT22;10146;47.754;9.566;2022-11-21T17:55:03;5.20;99.90
19970;DHT22;10146;47.754;9.566;2022-11-21T17:57:29;5.30;99.90
19970;DHT22;10146;47.754;9.566;2022-11-21T17:59:54;5.30;99.90
19970;DHT22;10146;47.754;9.566;2022-11-21T18:02:20;5.20;99.90
19970;DHT22;10146;47.754;9.566;2022-11-21T18:04:46;5.20;99.90
19970;DHT22;10146;47.754;9.566;2022-11-21T18:07:12;5.30;99.90